Ceduna Airport

About
Name: Ceduna Airport
Identifier:  CED/YCDU
Operator:  District Council of Ceduna
Public/Private:  Public
Local Time:  19. Aug 08:43 ACST
Description: Ceduna Airport is an airport in Ceduna, South Australia.
Source: Wikipedia
Location
Runways
Identifier Length (m/ft) Surface
11/29 5,708/5,708 Asphalt
17/35 3,326/3,326 Gravel
Flights per Day
3 flights
Distance: 546km (339mi)
Punctuality
71% (0 flights per day delayed)
Delay Average: 81 minutes
Current Weather
  11kt (20km/h / 12mph) from 190°
  9km (6 mi.)
 METAR YCDU 182200Z AUTO 19011KT 9999 // SCT035 SCT046 BKN056 11/06 Q1031

Current Flights

Departures
Number Departure To Airline
 ZL4127 09:00  Adelaide  REX (Regional Express)
Arrivals
Number Arrival From Airline
 ZL4136 19:05  Adelaide  REX (Regional Express)
 ZL4126 08:40 +4  Adelaide  REX (Regional Express)

Current Delays

Departures
N/A
Arrivals
N/A

Destinations

Top Destinations
Airport Flights
per week
Seats
per week
  Adelaide (ADL) 29 763 4 109
  Port Augusta (PUG) 0 - 0 0
  Whyalla (WYA) 0 - 0 0
  Port Lincoln (PLO) 0 - 0 0

Airlines & Planes

Top Airlines
Airline Flights
per Day
Seats
per Day
  REX (Regional Express) 3 109
Top Plane Types
Model Flights Seats
Saab 340 3.9/day 109/day 109.06666666666666
Pilatus PC-12 0.4/day - 0